createdAt,value
2023-02-13T00:01:30.986Z,44.60
2023-02-13T00:04:04.288Z,51.55
2023-02-13T00:06:36.719Z,54.92
2023-02-13T00:09:10.472Z,62.50
2023-02-13T00:11:42.989Z,55.17
2023-02-13T00:14:15.655Z,52.05
2023-02-13T00:16:48.990Z,35.45
2023-02-13T00:19:21.709Z,34.28
2023-02-13T00:21:54.145Z,51.03
2023-02-13T00:24:26.893Z,62.45
2023-02-13T00:26:59.313Z,67.18
2023-02-13T00:29:32.913Z,61.47
2023-02-13T00:32:06.311Z,51.97
2023-02-13T00:34:38.930Z,38.63
2023-02-13T00:37:11.522Z,45.40
2023-02-13T00:39:44.003Z,45.60
2023-02-13T00:42:16.543Z,29.15
2023-02-13T00:44:50.336Z,44.25
2023-02-13T00:47:23.551Z,39.58
2023-02-13T00:49:56.234Z,37.53
2023-02-13T00:52:28.644Z,35.28
2023-02-13T00:55:01.648Z,38.88
2023-02-13T00:57:34.218Z,33.13
2023-02-13T01:00:08.137Z,29.30
2023-02-13T01:02:41.283Z,36.80
2023-02-13T01:05:14.317Z,38.88
2023-02-13T01:07:46.703Z,38.85
2023-02-13T01:10:19.378Z,38.20
2023-02-13T01:12:52.031Z,51.03
2023-02-13T01:15:24.761Z,52.13
2023-02-13T01:18:00.189Z,44.63
2023-02-13T01:20:33.265Z,43.42
2023-02-13T01:23:05.758Z,34.47
2023-02-13T01:25:40.431Z,40.75
2023-02-13T01:28:12.967Z,43.70
2023-02-13T01:30:45.695Z,31.20
2023-02-13T01:33:18.838Z,30.63
2023-02-13T01:35:51.971Z,34.00
2023-02-13T01:38:24.505Z,39.05
2023-02-13T01:40:57.319Z,48.17
2023-02-13T01:43:45.145Z,31.33
2023-02-13T01:46:23.282Z,51.90
2023-02-13T01:49:03.101Z,43.65
2023-02-13T01:51:36.922Z,51.10
2023-02-13T01:54:13.937Z,32.92
2023-02-13T01:56:49.520Z,50.97
2023-02-13T01:59:26.269Z,35.60
2023-02-13T02:02:01.201Z,41.75
2023-02-13T02:04:37.849Z,40.10
2023-02-13T02:07:20.383Z,25.90
2023-02-13T02:10:01.933Z,40.13
2023-02-13T02:12:42.350Z,41.50
2023-02-13T02:15:16.524Z,40.53
2023-02-13T02:17:49.144Z,46.65
2023-02-13T02:20:39.238Z,36.83
2023-02-13T02:23:38.493Z,42.28
2023-02-13T02:26:45.849Z,41.75
2023-02-13T02:29:40.186Z,41.30
2023-02-13T02:32:24.549Z,41.28
2023-02-13T02:35:07.791Z,39.25
2023-02-13T02:38:01.411Z,42.03
2023-02-13T02:40:43.056Z,34.05
2023-02-13T02:43:28.541Z,33.08
2023-02-13T02:46:11.659Z,40.97
2023-02-13T02:49:08.980Z,44.38
2023-02-13T02:51:54.461Z,39.58
2023-02-13T02:54:50.791Z,31.75
2023-02-13T02:57:47.404Z,33.35
2023-02-13T03:00:42.367Z,30.08
2023-02-13T03:03:36.717Z,37.28
2023-02-13T03:06:15.125Z,41.08
2023-02-13T03:09:12.260Z,59.22
2023-02-13T03:12:08.666Z,52.08
2023-02-13T03:14:42.234Z,46.25
2023-02-13T03:17:35.691Z,43.90
2023-02-13T03:20:33.806Z,35.30
2023-02-13T03:23:13.953Z,35.45
2023-02-13T03:26:07.230Z,35.45
2023-02-13T03:29:08.029Z,65.13
2023-02-13T03:31:49.421Z,43.92
2023-02-13T03:34:25.256Z,37.90
2023-02-13T03:37:19.606Z,35.88
2023-02-13T03:40:01.078Z,49.70
2023-02-13T03:42:37.041Z,39.75
2023-02-13T03:45:32.434Z,44.38
2023-02-13T03:48:29.361Z,41.13
2023-02-13T03:51:03.486Z,63.35
2023-02-13T03:53:39.548Z,55.65
2023-02-13T03:56:32.759Z,36.35
2023-02-13T03:59:15.854Z,33.17
2023-02-13T04:01:59.391Z,33.25
2023-02-13T04:04:40.184Z,36.30
2023-02-13T04:07:28.612Z,46.25
2023-02-13T04:10:05.574Z,51.78
2023-02-13T04:12:48.657Z,43.17
2023-02-13T04:15:27.596Z,43.45
2023-02-13T04:18:09.629Z,53.38
2023-02-13T04:20:43.632Z,39.45
2023-02-13T04:23:16.326Z,41.78
2023-02-13T04:25:51.942Z,39.58
2023-02-13T04:28:25.187Z,53.53
2023-02-13T04:30:58.132Z,43.90
2023-02-13T04:33:30.697Z,44.65
2023-02-13T04:36:03.617Z,40.60
2023-02-13T04:38:36.106Z,36.83
2023-02-13T04:41:08.494Z,29.67
2023-02-13T04:43:41.656Z,32.20
2023-02-13T04:46:14.138Z,32.08
2023-02-13T04:48:46.811Z,27.02
2023-02-13T04:51:19.430Z,21.77
2023-02-13T04:53:51.792Z,25.80
2023-02-13T04:56:24.216Z,26.50
2023-02-13T04:58:57.213Z,28.02
2023-02-13T05:01:29.925Z,16.77
2023-02-13T05:04:02.460Z,17.10
2023-02-13T05:06:34.789Z,23.52
2023-02-13T05:09:07.199Z,27.10
2023-02-13T05:11:39.559Z,27.02
2023-02-13T05:14:12.892Z,31.48
2023-02-13T05:16:45.385Z,20.73
2023-02-13T05:19:17.828Z,16.58
2023-02-13T05:22:08.640Z,13.95
2023-02-13T05:24:41.374Z,12.98
2023-02-13T05:27:13.947Z,23.95
2023-02-13T05:29:47.031Z,14.82
2023-02-13T05:32:19.495Z,21.73
2023-02-13T05:34:51.915Z,17.13
2023-02-13T05:37:24.369Z,20.25
2023-02-13T05:39:56.727Z,19.35
2023-02-13T05:42:29.150Z,21.45
2023-02-13T05:45:02.784Z,15.95
2023-02-13T05:47:35.586Z,20.42
2023-02-13T05:50:08.625Z,21.23
2023-02-13T05:52:41.010Z,15.75
2023-02-13T05:55:13.530Z,27.52
2023-02-13T05:57:45.991Z,18.88
2023-02-13T06:00:20.774Z,14.13
2023-02-13T06:02:53.139Z,11.35
2023-02-13T06:05:25.827Z,19.20
2023-02-13T06:07:58.170Z,38.47
2023-02-13T06:10:31.122Z,27.27
2023-02-13T06:13:03.552Z,30.73
2023-02-13T06:15:36.876Z,33.10
2023-02-13T06:18:09.257Z,31.20
2023-02-13T06:20:41.891Z,26.60
2023-02-13T06:23:14.475Z,25.52
2023-02-13T06:25:47.074Z,30.73
2023-02-13T06:28:19.813Z,23.30
2023-02-13T06:30:53.005Z,22.88
2023-02-13T06:33:25.437Z,30.52
2023-02-13T06:35:57.849Z,30.33
2023-02-13T06:38:31.372Z,30.73
2023-02-13T06:41:04.014Z,27.42
2023-02-13T06:43:37.778Z,33.67
2023-02-13T06:46:12.441Z,30.55
2023-02-13T06:48:44.873Z,38.25
2023-02-13T06:51:17.308Z,36.17
2023-02-13T06:53:49.859Z,33.92
2023-02-13T06:56:22.306Z,45.58
2023-02-13T06:58:54.654Z,47.30
2023-02-13T07:01:27.869Z,40.78
2023-02-13T07:04:00.274Z,34.28
2023-02-13T07:06:33.582Z,45.90
2023-02-13T07:09:06.174Z,34.90
2023-02-13T07:11:39.110Z,28.08
2023-02-13T07:14:11.465Z,29.13
2023-02-13T07:16:44.580Z,28.92
2023-02-13T07:19:17.140Z,27.33
2023-02-13T07:21:49.929Z,35.58
2023-02-13T07:24:22.504Z,35.42
2023-02-13T07:26:55.130Z,36.78
2023-02-13T07:29:27.771Z,28.23
2023-02-13T07:32:01.650Z,26.75
2023-02-13T07:34:34.269Z,33.25
2023-02-13T07:37:06.761Z,32.88
2023-02-13T07:39:39.409Z,31.27
2023-02-13T07:42:11.986Z,45.35
2023-02-13T07:44:44.510Z,29.60
2023-02-13T07:47:19.780Z,35.08
2023-02-13T07:49:54.146Z,29.17
2023-02-13T07:52:26.594Z,33.35
2023-02-13T07:54:59.075Z,33.40
2023-02-13T07:57:31.622Z,37.83
2023-02-13T08:00:05.328Z,23.17
2023-02-13T08:02:45.077Z,37.67
2023-02-13T08:05:17.902Z,39.10
2023-02-13T08:07:50.269Z,40.47
2023-02-13T08:10:41.557Z,39.00
2023-02-13T08:13:15.560Z,23.63
2023-02-13T08:15:48.572Z,50.70
2023-02-13T08:18:21.731Z,34.65
2023-02-13T08:20:54.134Z,28.00
2023-02-13T08:23:26.597Z,32.60
2023-02-13T08:26:01.315Z,32.75
2023-02-13T08:28:35.318Z,26.30
2023-02-13T08:31:11.854Z,25.17
2023-02-13T08:33:45.104Z,38.92
2023-02-13T08:36:18.952Z,30.33
2023-02-13T08:38:51.328Z,26.25
2023-02-13T08:41:23.821Z,34.97
2023-02-13T08:43:56.208Z,34.08
2023-02-13T08:46:28.853Z,27.05
2023-02-13T08:49:01.904Z,31.58
2023-02-13T08:51:34.465Z,28.00
2023-02-13T08:54:06.836Z,30.95
2023-02-13T08:56:39.431Z,24.15
2023-02-13T08:59:11.885Z,26.48
2023-02-13T09:01:44.295Z,23.17
2023-02-13T09:04:17.930Z,31.75
2023-02-13T09:06:50.603Z,21.95
2023-02-13T09:09:23.187Z,28.85
2023-02-13T09:11:57.297Z,22.23
2023-02-13T09:14:29.847Z,27.85
2023-02-13T09:17:02.384Z,18.75
2023-02-13T09:19:35.710Z,35.80
2023-02-13T09:22:08.080Z,31.33
2023-02-13T09:24:40.720Z,41.13
2023-02-13T09:27:13.389Z,30.17
2023-02-13T09:29:46.405Z,24.15
2023-02-13T09:32:18.849Z,28.63
2023-02-13T09:34:51.932Z,28.23
2023-02-13T09:37:24.457Z,22.90
2023-02-13T09:39:56.848Z,26.63
2023-02-13T09:42:32.877Z,23.10
2023-02-13T09:45:07.897Z,22.63
2023-02-13T09:47:42.512Z,27.25
2023-02-13T09:50:21.693Z,27.80
2023-02-13T09:52:56.610Z,22.60
2023-02-13T09:55:46.636Z,29.80
2023-02-13T09:58:27.828Z,31.30
2023-02-13T10:01:04.312Z,27.02
2023-02-13T10:03:44.311Z,19.63
2023-02-13T10:06:24.891Z,22.85
2023-02-13T10:09:10.008Z,23.67
2023-02-13T10:12:05.764Z,61.85
2023-02-13T10:14:47.489Z,30.05
2023-02-13T10:17:26.526Z,23.00
2023-02-13T10:20:03.275Z,30.35
2023-02-13T10:22:41.156Z,26.85
2023-02-13T10:25:20.974Z,23.77
2023-02-13T10:27:57.990Z,36.92
2023-02-13T10:30:32.580Z,29.40
2023-02-13T10:33:21.043Z,23.98
2023-02-13T10:35:59.162Z,23.88
2023-02-13T10:38:35.470Z,26.63
2023-02-13T10:41:31.249Z,29.95
2023-02-13T10:44:19.316Z,58.88
2023-02-13T10:47:01.464Z,45.65
2023-02-13T10:49:47.481Z,110.32
2023-02-13T10:52:32.878Z,73.55
2023-02-13T10:55:28.882Z,35.22
2023-02-13T10:58:12.673Z,25.65
2023-02-13T11:00:49.856Z,34.55
2023-02-13T11:03:24.441Z,25.33
2023-02-13T11:05:59.253Z,31.98
2023-02-13T11:08:34.742Z,27.80
2023-02-13T11:11:29.283Z,32.95
2023-02-13T11:14:11.084Z,27.77
2023-02-13T11:16:53.335Z,31.42
2023-02-13T11:19:30.506Z,30.75
2023-02-13T11:22:06.591Z,29.67
2023-02-13T11:24:41.273Z,24.98
2023-02-13T11:27:14.451Z,25.85
2023-02-13T11:29:55.429Z,21.02
2023-02-13T11:32:30.029Z,29.48
2023-02-13T11:35:27.107Z,26.70
2023-02-13T11:38:20.194Z,27.85
2023-02-13T11:41:06.886Z,20.65
2023-02-13T11:43:47.814Z,27.90
2023-02-13T11:46:22.237Z,30.25
2023-02-13T11:49:01.442Z,26.38
2023-02-13T11:51:40.137Z,26.48
2023-02-13T11:54:30.484Z,26.87
2023-02-13T11:57:16.861Z,26.17
2023-02-13T11:59:52.186Z,30.85
2023-02-13T12:02:26.571Z,20.08
2023-02-13T12:05:17.611Z,23.40
2023-02-13T12:07:50.890Z,25.20
2023-02-13T12:10:26.801Z,28.63
2023-02-13T12:13:06.104Z,25.27
2023-02-13T12:15:40.166Z,17.35
2023-02-13T12:18:18.889Z,19.23
2023-02-13T12:20:59.362Z,26.58
2023-02-13T12:23:45.521Z,25.73
2023-02-13T12:26:30.061Z,20.55
2023-02-13T12:29:28.865Z,18.17
2023-02-13T12:32:15.218Z,19.90
2023-02-13T12:35:21.250Z,19.98
2023-02-13T12:38:01.341Z,19.08
2023-02-13T12:41:07.665Z,12.10
2023-02-13T12:44:21.533Z,13.05
2023-02-13T12:47:07.334Z,15.48
2023-02-13T12:49:59.801Z,17.17
2023-02-13T12:52:45.955Z,16.05
2023-02-13T12:55:47.542Z,20.75
2023-02-13T12:58:40.340Z,18.60
2023-02-13T13:01:22.396Z,14.65
2023-02-13T13:04:08.986Z,20.05
2023-02-13T13:06:56.298Z,13.57
2023-02-13T13:09:59.553Z,14.55
2023-02-13T13:12:45.633Z,16.92
2023-02-13T13:15:31.418Z,12.40
2023-02-13T13:18:18.038Z,19.13
2023-02-13T13:21:01.032Z,20.83
2023-02-13T13:23:37.178Z,16.95
2023-02-13T13:26:20.694Z,15.45
2023-02-13T13:28:55.607Z,16.70
2023-02-13T13:31:28.491Z,14.00
2023-02-13T13:34:11.760Z,13.70
2023-02-13T13:36:48.594Z,13.00
2023-02-13T13:39:36.971Z,12.57
2023-02-13T13:42:16.364Z,13.05
2023-02-13T13:45:08.435Z,16.70
2023-02-13T13:47:51.959Z,19.70
2023-02-13T13:50:26.241Z,12.80
2023-02-13T13:53:11.004Z,14.73
2023-02-13T13:56:07.885Z,16.10
2023-02-13T13:58:42.985Z,15.50
2023-02-13T14:01:17.607Z,17.45
2023-02-13T14:03:52.661Z,13.32
2023-02-13T14:06:27.481Z,19.48
2023-02-13T14:09:07.914Z,12.10
2023-02-13T14:11:45.833Z,17.98
2023-02-13T14:14:52.716Z,9.32
2023-02-13T14:17:53.868Z,12.13
2023-02-13T14:20:34.709Z,13.65
2023-02-13T14:23:33.480Z,12.10
2023-02-13T14:26:22.100Z,13.47
2023-02-13T14:29:05.113Z,16.58
2023-02-13T14:31:40.489Z,13.80
2023-02-13T14:34:28.307Z,19.35
2023-02-13T14:37:23.788Z,18.55
2023-02-13T14:40:41.213Z,15.27
2023-02-13T14:43:32.963Z,12.70
2023-02-13T14:46:24.426Z,14.88
2023-02-13T14:49:01.816Z,11.77
2023-02-13T14:51:38.065Z,15.05
2023-02-13T14:54:20.513Z,13.77
2023-02-13T14:56:59.161Z,14.85
2023-02-13T14:59:36.808Z,8.60
2023-02-13T15:02:18.545Z,18.00
2023-02-13T15:04:56.944Z,11.07
2023-02-13T15:07:34.090Z,10.77
2023-02-13T15:10:33.592Z,15.73
2023-02-13T15:13:13.456Z,12.88
2023-02-13T15:15:53.050Z,12.63
2023-02-13T15:18:28.025Z,12.45
2023-02-13T15:21:02.296Z,12.60
2023-02-13T15:23:34.766Z,10.63
2023-02-13T15:26:08.335Z,18.83
2023-02-13T15:28:40.884Z,12.93
2023-02-13T15:31:24.000Z,14.95
2023-02-13T15:33:58.108Z,12.63
2023-02-13T15:36:35.549Z,12.43
2023-02-13T15:39:17.992Z,14.63
2023-02-13T15:41:53.067Z,9.27
2023-02-13T15:44:28.734Z,13.82
2023-02-13T15:47:07.241Z,12.85
2023-02-13T15:49:44.968Z,13.07
2023-02-13T15:52:21.405Z,17.80
2023-02-13T15:54:55.585Z,18.65
2023-02-13T15:57:28.592Z,16.10
2023-02-13T16:00:02.646Z,13.60
2023-02-13T16:02:47.216Z,14.35
2023-02-13T16:05:37.472Z,21.50
2023-02-13T16:08:27.747Z,19.63
2023-02-13T16:11:17.633Z,17.27
2023-02-13T16:14:16.921Z,16.77
2023-02-13T16:16:52.601Z,23.23
2023-02-13T16:19:31.098Z,25.13
2023-02-13T16:22:20.078Z,49.75
2023-02-13T16:24:54.309Z,47.72
2023-02-13T16:27:28.027Z,57.55
2023-02-13T16:30:03.569Z,33.53
2023-02-13T16:32:38.140Z,30.30
2023-02-13T16:35:37.197Z,48.88
2023-02-13T16:38:29.779Z,42.72
2023-02-13T16:41:05.246Z,66.03
2023-02-13T16:43:44.508Z,31.50
2023-02-13T16:46:32.637Z,48.35
2023-02-13T16:49:23.615Z,44.15
2023-02-13T16:52:01.009Z,45.75
2023-02-13T16:54:46.014Z,80.97
2023-02-13T16:57:22.369Z,84.15
2023-02-13T17:00:03.614Z,69.28
2023-02-13T17:02:37.481Z,73.30
2023-02-13T17:05:20.073Z,82.63
2023-02-13T17:07:56.404Z,71.47
2023-02-13T17:10:32.880Z,71.15
2023-02-13T17:13:14.312Z,69.65
2023-02-13T17:15:48.020Z,90.82
2023-02-13T17:18:20.691Z,69.43
2023-02-13T17:20:53.849Z,66.68
2023-02-13T17:23:26.998Z,58.97
2023-02-13T17:25:59.423Z,60.10
2023-02-13T17:28:31.970Z,77.03
2023-02-13T17:31:09.824Z,55.63
2023-02-13T17:33:44.276Z,73.60
2023-02-13T17:36:16.643Z,87.75
2023-02-13T17:38:49.899Z,73.72
2023-02-13T17:41:22.539Z,52.90
2023-02-13T17:43:54.929Z,71.65
2023-02-13T17:46:27.383Z,74.60
2023-02-13T17:48:59.881Z,65.13
2023-02-13T17:51:32.627Z,109.95
2023-02-13T17:54:05.723Z,98.57
2023-02-13T17:56:38.118Z,80.15
2023-02-13T17:59:10.474Z,64.10
2023-02-13T18:01:42.891Z,75.25
2023-02-13T18:04:15.714Z,91.63
2023-02-13T18:06:51.698Z,109.10
2023-02-13T18:09:24.765Z,119.03
2023-02-13T18:12:05.428Z,162.55
2023-02-13T18:14:37.916Z,159.40
2023-02-13T18:17:10.760Z,152.45
2023-02-13T18:19:43.508Z,171.40
2023-02-13T18:22:16.107Z,148.23
2023-02-13T18:24:49.404Z,178.30
2023-02-13T18:27:22.526Z,126.57
2023-02-13T18:29:55.319Z,96.72
2023-02-13T18:32:28.096Z,82.13
2023-02-13T18:35:01.796Z,80.45
2023-02-13T18:37:34.408Z,77.82
2023-02-13T18:40:08.819Z,74.95
2023-02-13T18:42:41.434Z,60.97
2023-02-13T18:45:13.802Z,82.88
2023-02-13T18:47:46.210Z,84.00
2023-02-13T18:50:20.028Z,75.57
2023-02-13T18:52:52.412Z,66.97
2023-02-13T18:55:25.888Z,49.83
2023-02-13T18:57:58.740Z,61.80
2023-02-13T19:00:31.196Z,45.15
2023-02-13T19:03:03.626Z,51.55
2023-02-13T19:05:40.337Z,57.17
2023-02-13T19:08:14.071Z,73.30
2023-02-13T19:10:47.161Z,63.53
2023-02-13T19:13:19.687Z,79.32
2023-02-13T19:15:52.204Z,98.20
2023-02-13T19:18:24.698Z,54.20
2023-02-13T19:20:59.469Z,60.08
2023-02-13T19:23:32.115Z,52.75
2023-02-13T19:26:06.333Z,73.07
2023-02-13T19:28:39.022Z,49.78
2023-02-13T19:31:14.717Z,49.53
2023-02-13T19:33:48.655Z,60.88
2023-02-13T19:36:23.460Z,49.30
2023-02-13T19:38:57.739Z,57.90
2023-02-13T19:41:32.259Z,62.55
2023-02-13T19:44:04.892Z,55.03
2023-02-13T19:46:37.782Z,74.57
2023-02-13T19:49:10.251Z,75.22
2023-02-13T19:51:45.407Z,53.80
2023-02-13T19:54:17.760Z,53.00
2023-02-13T19:56:50.961Z,49.50
2023-02-13T19:59:23.278Z,36.67
2023-02-13T20:01:55.721Z,37.05
2023-02-13T20:04:28.113Z,34.22
2023-02-13T20:07:01.164Z,35.95
2023-02-13T20:09:34.781Z,24.88
2023-02-13T20:12:07.922Z,34.20
2023-02-13T20:14:40.326Z,19.33
2023-02-13T20:17:12.725Z,31.67
2023-02-13T20:19:46.892Z,31.90
2023-02-13T20:22:19.382Z,21.10
2023-02-13T20:24:54.627Z,28.27
2023-02-13T20:27:27.781Z,25.65
2023-02-13T20:30:06.589Z,30.63
2023-02-13T20:35:13.299Z,32.92
2023-02-13T20:37:45.738Z,37.95
2023-02-13T20:40:18.257Z,28.67
2023-02-13T20:42:51.298Z,30.33
2023-02-13T20:45:23.912Z,29.02
2023-02-13T20:47:56.327Z,21.08
2023-02-13T20:50:28.896Z,18.52
2023-02-13T20:53:01.354Z,33.72
2023-02-13T20:55:33.744Z,24.23
2023-02-13T20:58:06.898Z,21.88
2023-02-13T21:00:39.324Z,12.77
2023-02-13T21:03:11.767Z,21.05
2023-02-13T21:05:44.848Z,26.55
2023-02-13T21:08:17.330Z,26.67
2023-02-13T21:10:49.737Z,18.65
2023-02-13T21:13:22.766Z,18.38
2023-02-13T21:16:02.465Z,25.38
2023-02-13T21:21:09.163Z,29.88
2023-02-13T21:23:41.652Z,24.92
2023-02-13T21:26:16.716Z,24.17
2023-02-13T21:28:50.580Z,18.55
2023-02-13T21:31:27.158Z,28.92
2023-02-13T21:34:02.349Z,24.73
2023-02-13T21:36:36.475Z,11.38
2023-02-13T21:39:10.616Z,12.45
2023-02-13T21:41:44.706Z,12.55
2023-02-13T21:44:17.904Z,21.45
2023-02-13T21:46:50.552Z,11.13
2023-02-13T21:49:24.392Z,13.80
2023-02-13T21:51:56.897Z,21.60
2023-02-13T21:54:29.261Z,16.10
2023-02-13T21:57:02.003Z,16.83
2023-02-13T21:59:35.072Z,19.38
2023-02-13T22:02:07.576Z,20.45
2023-02-13T22:04:40.745Z,14.45
2023-02-13T22:07:13.086Z,21.15
2023-02-13T22:09:45.463Z,23.75
2023-02-13T22:12:17.824Z,19.50
2023-02-13T22:14:51.058Z,44.55
2023-02-13T22:17:23.601Z,30.33
2023-02-13T22:19:56.021Z,14.57
2023-02-13T22:22:28.319Z,21.67
2023-02-13T22:25:01.275Z,25.10
2023-02-13T22:27:34.149Z,17.70
2023-02-13T22:30:08.427Z,14.50
2023-02-13T22:32:41.499Z,17.08
2023-02-13T22:35:13.888Z,22.48
2023-02-13T22:37:46.281Z,18.15
2023-02-13T22:40:18.999Z,30.52
2023-02-13T22:42:51.941Z,32.05
2023-02-13T22:45:25.154Z,16.20
2023-02-13T22:47:57.892Z,20.30
2023-02-13T22:50:30.816Z,18.65
2023-02-13T22:53:03.372Z,21.63
2023-02-13T22:55:35.737Z,16.25
2023-02-13T22:58:08.054Z,14.15
2023-02-13T23:00:41.246Z,20.92
2023-02-13T23:03:14.510Z,15.23
2023-02-13T23:05:47.079Z,19.75
2023-02-13T23:08:19.592Z,16.25
2023-02-13T23:11:06.704Z,58.25
2023-02-13T23:13:39.073Z,17.00
2023-02-13T23:16:13.432Z,15.23
2023-02-13T23:18:50.849Z,14.30
2023-02-13T23:21:23.734Z,9.05
2023-02-13T23:23:56.102Z,16.25
2023-02-13T23:26:28.529Z,12.55
2023-02-13T23:29:00.893Z,16.50
2023-02-13T23:31:33.990Z,15.75
2023-02-13T23:34:06.503Z,15.00
2023-02-13T23:36:38.964Z,16.83
2023-02-13T23:39:11.372Z,45.95
2023-02-13T23:41:43.791Z,35.58
2023-02-13T23:44:16.211Z,18.83
2023-02-13T23:46:49.376Z,24.90
2023-02-13T23:49:22.058Z,24.95
2023-02-13T23:51:54.597Z,21.10
2023-02-13T23:54:27.079Z,15.85
2023-02-13T23:56:59.800Z,12.27
2023-02-13T23:59:32.847Z,15.82
